sensor_id;sensor_type;location;lat;lon;timestamp;P1;durP1;ratioP1;P2;durP2;ratioP2
65535;SDS011;52145;49.342;9.116;2022-11-20T09:22:23;6.45;;;3.55;;
65535;SDS011;52145;49.342;9.116;2022-11-20T11:18:04;12.05;;;7.93;;
65535;SDS011;52145;49.342;9.116;2022-11-20T11:20:29;9.23;;;6.00;;
65535;SDS011;52145;49.342;9.116;2022-11-20T11:22:57;5.88;;;3.08;;
65535;SDS011;52145;49.342;9.116;2022-11-20T11:25:33;8.82;;;3.55;;
65535;SDS011;52145;49.342;9.116;2022-11-20T11:28:02;5.03;;;2.67;;
65535;SDS011;52145;49.342;9.116;2022-11-20T11:30:44;4.28;;;3.17;;
65535;SDS011;52145;49.342;9.116;2022-11-20T11:33:11;5.70;;;3.45;;
65535;SDS011;52145;49.342;9.116;2022-11-20T11:35:59;6.20;;;3.10;;
65535;SDS011;52145;49.342;9.116;2022-11-20T11:38:38;5.32;;;3.55;;
65535;SDS011;52145;49.342;9.116;2022-11-20T11:53:13;7.35;;;2.80;;
65535;SDS011;52145;49.342;9.116;2022-11-20T11:58:11;4.57;;;2.63;;
65535;SDS011;52145;49.342;9.116;2022-11-20T12:01:01;4.95;;;2.35;;
65535;SDS011;52145;49.342;9.116;2022-11-20T12:03:52;5.65;;;2.63;;
65535;SDS011;52145;49.342;9.116;2022-11-20T12:06:26;5.85;;;2.80;;
65535;SDS011;52145;49.342;9.116;2022-11-20T12:11:31;6.35;;;2.83;;
65535;SDS011;52145;49.342;9.116;2022-11-20T12:14:21;8.43;;;3.35;;
65535;SDS011;52145;49.342;9.116;2022-11-20T12:16:58;4.28;;;2.33;;
65535;SDS011;52145;49.342;9.116;2022-11-20T12:19:26;6.03;;;2.83;;
65535;SDS011;52145;49.342;9.116;2022-11-20T12:22:01;5.43;;;2.80;;
65535;SDS011;52145;49.342;9.116;2022-11-20T12:30:22;6.10;;;2.55;;
65535;SDS011;52145;49.342;9.116;2022-11-20T12:43:23;6.65;;;3.25;;
65535;SDS011;52145;49.342;9.116;2022-11-20T12:49:21;7.30;;;3.08;;
65535;SDS011;52145;49.342;9.116;2022-11-20T13:19:09;7.38;;;2.30;;
65535;SDS011;52145;49.342;9.116;2022-11-20T13:21:38;2.60;;;2.00;;
65535;SDS011;52145;49.342;9.116;2022-11-20T13:26:48;7.38;;;2.15;;
65535;SDS011;52145;49.342;9.116;2022-11-20T13:29:33;4.35;;;1.63;;
65535;SDS011;52145;49.342;9.116;2022-11-20T13:32:16;4.68;;;1.50;;
65535;SDS011;52145;49.342;9.116;2022-11-20T13:35:02;5.63;;;1.75;;
65535;SDS011;52145;49.342;9.116;2022-11-20T13:37:30;5.60;;;2.22;;
65535;SDS011;52145;49.342;9.116;2022-11-20T13:40:31;7.50;;;1.85;;
65535;SDS011;52145;49.342;9.116;2022-11-20T13:43:00;3.08;;;1.50;;
65535;SDS011;52145;49.342;9.116;2022-11-20T13:45:33;3.35;;;1.73;;
65535;SDS011;52145;49.342;9.116;2022-11-20T13:48:02;7.35;;;2.65;;
65535;SDS011;52145;49.342;9.116;2022-11-20T13:53:04;5.05;;;1.58;;
65535;SDS011;52145;49.342;9.116;2022-11-20T14:01:11;3.70;;;1.85;;
65535;SDS011;52145;49.342;9.116;2022-11-20T14:03:46;4.35;;;1.40;;
65535;SDS011;52145;49.342;9.116;2022-11-20T14:06:32;3.85;;;1.55;;
65535;SDS011;52145;49.342;9.116;2022-11-20T14:09:03;4.32;;;1.20;;
65535;SDS011;52145;49.342;9.116;2022-11-20T14:11:29;4.20;;;1.60;;
65535;SDS011;52145;49.342;9.116;2022-11-20T14:16:25;3.08;;;1.13;;
65535;SDS011;52145;49.342;9.116;2022-11-20T14:18:52;3.88;;;1.35;;
65535;SDS011;52145;49.342;9.116;2022-11-20T14:21:26;4.97;;;1.10;;
65535;SDS011;52145;49.342;9.116;2022-11-20T14:26:30;4.45;;;2.05;;
65535;SDS011;52145;49.342;9.116;2022-11-20T14:28:56;7.53;;;1.50;;
65535;SDS011;52145;49.342;9.116;2022-11-20T14:31:23;2.28;;;1.00;;
65535;SDS011;52145;49.342;9.116;2022-11-20T14:33:51;2.92;;;1.30;;
65535;SDS011;52145;49.342;9.116;2022-11-20T14:36:18;4.40;;;1.80;;
65535;SDS011;52145;49.342;9.116;2022-11-20T14:38:46;2.70;;;1.35;;
65535;SDS011;52145;49.342;9.116;2022-11-20T14:41:19;2.33;;;1.13;;
65535;SDS011;52145;49.342;9.116;2022-11-20T14:43:57;4.10;;;1.63;;
65535;SDS011;52145;49.342;9.116;2022-11-20T14:46:24;3.78;;;1.40;;
65535;SDS011;52145;49.342;9.116;2022-11-20T14:48:51;6.57;;;1.70;;
65535;SDS011;52145;49.342;9.116;2022-11-20T14:51:39;3.15;;;1.25;;
65535;SDS011;52145;49.342;9.116;2022-11-20T14:54:11;2.97;;;1.33;;
65535;SDS011;52145;49.342;9.116;2022-11-20T14:56:55;4.78;;;1.70;;
65535;SDS011;52145;49.342;9.116;2022-11-20T14:59:25;3.17;;;1.20;;
65535;SDS011;52145;49.342;9.116;2022-11-20T15:01:59;4.88;;;1.70;;
65535;SDS011;52145;49.342;9.116;2022-11-20T15:04:29;8.32;;;2.55;;
65535;SDS011;52145;49.342;9.116;2022-11-20T15:06:55;5.47;;;1.88;;
65535;SDS011;52145;49.342;9.116;2022-11-20T15:09:22;6.57;;;2.20;;
65535;SDS011;52145;49.342;9.116;2022-11-20T15:11:55;4.07;;;1.63;;
65535;SDS011;52145;49.342;9.116;2022-11-20T15:14:26;5.93;;;2.03;;
65535;SDS011;52145;49.342;9.116;2022-11-20T15:16:53;2.78;;;1.20;;
65535;SDS011;52145;49.342;9.116;2022-11-20T15:19:20;7.18;;;2.00;;
65535;SDS011;52145;49.342;9.116;2022-11-20T15:21:51;5.22;;;2.03;;
65535;SDS011;52145;49.342;9.116;2022-11-20T15:24:17;5.72;;;2.10;;
65535;SDS011;52145;49.342;9.116;2022-11-20T15:26:43;5.97;;;2.40;;
65535;SDS011;52145;49.342;9.116;2022-11-20T15:29:12;3.95;;;2.42;;
65535;SDS011;52145;49.342;9.116;2022-11-20T15:31:39;4.75;;;1.92;;
